sensor_id;sensor_type;location;lat;lon;timestamp;P1;durP1;ratioP1;P2;durP2;ratioP2
54871;SDS011;43914;57.680;11.982;2022-12-10T00:01:36;6.20;;;2.12;;
54871;SDS011;43914;57.680;11.982;2022-12-10T00:04:02;6.60;;;2.50;;
54871;SDS011;43914;57.680;11.982;2022-12-10T00:06:30;6.50;;;2.10;;
54871;SDS011;43914;57.680;11.982;2022-12-10T00:09:04;8.13;;;2.30;;
54871;SDS011;43914;57.680;11.982;2022-12-10T00:11:29;6.72;;;2.40;;
54871;SDS011;43914;57.680;11.982;2022-12-10T00:13:55;5.40;;;2.00;;
54871;SDS011;43914;57.680;11.982;2022-12-10T00:16:24;7.17;;;2.50;;
54871;SDS011;43914;57.680;11.982;2022-12-10T00:18:52;6.90;;;2.50;;
54871;SDS011;43914;57.680;11.982;2022-12-10T00:21:20;6.47;;;2.15;;
54871;SDS011;43914;57.680;11.982;2022-12-10T00:23:49;7.20;;;2.45;;
54871;SDS011;43914;57.680;11.982;2022-12-10T00:26:17;6.35;;;2.22;;
54871;SDS011;43914;57.680;11.982;2022-12-10T00:28:50;6.58;;;2.40;;
54871;SDS011;43914;57.680;11.982;2022-12-10T00:31:19;6.30;;;2.52;;
54871;SDS011;43914;57.680;11.982;2022-12-10T00:33:49;7.30;;;2.10;;
54871;SDS011;43914;57.680;11.982;2022-12-10T00:36:17;5.78;;;2.08;;
54871;SDS011;43914;57.680;11.982;2022-12-10T00:38:49;5.05;;;1.77;;
54871;SDS011;43914;57.680;11.982;2022-12-10T00:41:16;6.03;;;2.10;;
54871;SDS011;43914;57.680;11.982;2022-12-10T00:43:43;7.17;;;2.30;;
54871;SDS011;43914;57.680;11.982;2022-12-10T00:46:11;6.60;;;2.40;;
54871;SDS011;43914;57.680;11.982;2022-12-10T00:48:38;6.40;;;2.47;;
54871;SDS011;43914;57.680;11.982;2022-12-10T00:51:10;6.87;;;2.40;;
54871;SDS011;43914;57.680;11.982;2022-12-10T00:53:36;5.25;;;1.90;;
54871;SDS011;43914;57.680;11.982;2022-12-10T00:56:04;8.05;;;2.40;;
54871;SDS011;43914;57.680;11.982;2022-12-10T00:58:32;6.57;;;2.30;;
54871;SDS011;43914;57.680;11.982;2022-12-10T01:04:02;6.15;;;2.12;;
54871;SDS011;43914;57.680;11.982;2022-12-10T01:06:32;5.70;;;2.17;;
54871;SDS011;43914;57.680;11.982;2022-12-10T01:09:02;5.42;;;2.12;;
54871;SDS011;43914;57.680;11.982;2022-12-10T01:11:32;5.80;;;2.30;;
54871;SDS011;43914;57.680;11.982;2022-12-10T01:14:03;6.87;;;2.33;;
54871;SDS011;43914;57.680;11.982;2022-12-10T01:16:31;5.65;;;2.00;;
54871;SDS011;43914;57.680;11.982;2022-12-10T01:18:58;6.40;;;2.10;;
54871;SDS011;43914;57.680;11.982;2022-12-10T01:21:25;5.80;;;2.00;;
54871;SDS011;43914;57.680;11.982;2022-12-10T01:23:53;5.75;;;1.92;;
54871;SDS011;43914;57.680;11.982;2022-12-10T01:26:21;6.45;;;2.20;;
54871;SDS011;43914;57.680;11.982;2022-12-10T01:28:52;5.83;;;2.33;;
54871;SDS011;43914;57.680;11.982;2022-12-10T01:31:23;5.97;;;2.10;;
54871;SDS011;43914;57.680;11.982;2022-12-10T01:33:53;6.55;;;2.50;;
54871;SDS011;43914;57.680;11.982;2022-12-10T01:36:27;7.47;;;2.50;;
54871;SDS011;43914;57.680;11.982;2022-12-10T01:39:00;6.17;;;2.20;;
54871;SDS011;43914;57.680;11.982;2022-12-10T01:41:32;6.65;;;2.42;;
54871;SDS011;43914;57.680;11.982;2022-12-10T01:46:42;7.23;;;2.60;;
54871;SDS011;43914;57.680;11.982;2022-12-10T01:49:15;6.97;;;2.30;;
54871;SDS011;43914;57.680;11.982;2022-12-10T01:51:45;6.33;;;2.37;;
54871;SDS011;43914;57.680;11.982;2022-12-10T01:56:59;5.87;;;1.93;;
54871;SDS011;43914;57.680;11.982;2022-12-10T01:59:28;6.67;;;2.52;;
54871;SDS011;43914;57.680;11.982;2022-12-10T02:02:05;6.08;;;2.55;;
54871;SDS011;43914;57.680;11.982;2022-12-10T02:05:16;6.97;;;2.67;;
54871;SDS011;43914;57.680;11.982;2022-12-10T02:13:33;6.87;;;3.00;;
54871;SDS011;43914;57.680;11.982;2022-12-10T02:16:31;6.63;;;2.73;;
54871;SDS011;43914;57.680;11.982;2022-12-10T02:19:18;6.28;;;2.62;;
54871;SDS011;43914;57.680;11.982;2022-12-10T02:21:53;6.63;;;2.73;;
54871;SDS011;43914;57.680;11.982;2022-12-10T02:24:28;5.97;;;2.58;;
54871;SDS011;43914;57.680;11.982;2022-12-10T02:27:00;7.05;;;2.87;;
54871;SDS011;43914;57.680;11.982;2022-12-10T02:29:29;6.83;;;2.50;;
54871;SDS011;43914;57.680;11.982;2022-12-10T02:31:59;6.50;;;2.60;;
54871;SDS011;43914;57.680;11.982;2022-12-10T02:34:41;6.83;;;2.67;;
54871;SDS011;43914;57.680;11.982;2022-12-10T02:37:12;8.70;;;2.60;;
54871;SDS011;43914;57.680;11.982;2022-12-10T02:39:48;6.85;;;2.37;;
54871;SDS011;43914;57.680;11.982;2022-12-10T02:42:18;6.00;;;2.03;;
54871;SDS011;43914;57.680;11.982;2022-12-10T02:44:47;6.17;;;2.00;;
54871;SDS011;43914;57.680;11.982;2022-12-10T02:47:15;5.75;;;2.22;;
54871;SDS011;43914;57.680;11.982;2022-12-10T02:49:44;5.87;;;2.10;;
54871;SDS011;43914;57.680;11.982;2022-12-10T02:52:14;6.40;;;2.30;;
54871;SDS011;43914;57.680;11.982;2022-12-10T02:54:44;6.27;;;2.27;;
54871;SDS011;43914;57.680;11.982;2022-12-10T03:02:55;6.50;;;2.45;;
54871;SDS011;43914;57.680;11.982;2022-12-10T03:05:53;5.50;;;1.93;;
54871;SDS011;43914;57.680;11.982;2022-12-10T03:08:23;6.23;;;2.40;;
54871;SDS011;43914;57.680;11.982;2022-12-10T03:11:11;6.07;;;2.60;;
54871;SDS011;43914;57.680;11.982;2022-12-10T03:16:22;6.58;;;2.75;;
54871;SDS011;43914;57.680;11.982;2022-12-10T03:18:51;5.67;;;2.23;;
54871;SDS011;43914;57.680;11.982;2022-12-10T03:21:24;6.33;;;2.50;;
54871;SDS011;43914;57.680;11.982;2022-12-10T03:23:52;8.23;;;2.50;;
54871;SDS011;43914;57.680;11.982;2022-12-10T03:26:18;6.80;;;2.70;;
54871;SDS011;43914;57.680;11.982;2022-12-10T03:28:50;8.73;;;2.95;;
54871;SDS011;43914;57.680;11.982;2022-12-10T03:31:21;6.50;;;2.65;;
54871;SDS011;43914;57.680;11.982;2022-12-10T03:33:48;6.28;;;2.25;;
54871;SDS011;43914;57.680;11.982;2022-12-10T03:36:15;6.22;;;2.62;;
54871;SDS011;43914;57.680;11.982;2022-12-10T03:38:44;7.58;;;2.50;;
54871;SDS011;43914;57.680;11.982;2022-12-10T03:41:10;6.87;;;2.37;;
54871;SDS011;43914;57.680;11.982;2022-12-10T03:43:40;5.97;;;2.37;;
54871;SDS011;43914;57.680;11.982;2022-12-10T03:46:22;7.53;;;2.80;;
54871;SDS011;43914;57.680;11.982;2022-12-10T03:48:53;6.37;;;2.77;;
54871;SDS011;43914;57.680;11.982;2022-12-10T03:51:21;6.83;;;2.27;;
54871;SDS011;43914;57.680;11.982;2022-12-10T03:53:47;7.75;;;2.10;;
54871;SDS011;43914;57.680;11.982;2022-12-10T03:56:15;5.00;;;2.07;;
54871;SDS011;43914;57.680;11.982;2022-12-10T03:58:42;5.93;;;2.23;;
54871;SDS011;43914;57.680;11.982;2022-12-10T04:01:08;7.90;;;2.57;;
54871;SDS011;43914;57.680;11.982;2022-12-10T04:03:39;6.60;;;2.47;;
54871;SDS011;43914;57.680;11.982;2022-12-10T04:06:07;6.60;;;2.40;;
54871;SDS011;43914;57.680;11.982;2022-12-10T04:08:39;5.67;;;2.10;;
54871;SDS011;43914;57.680;11.982;2022-12-10T04:11:07;6.70;;;2.60;;
54871;SDS011;43914;57.680;11.982;2022-12-10T04:13:35;6.73;;;2.73;;
54871;SDS011;43914;57.680;11.982;2022-12-10T04:16:21;6.73;;;2.50;;
54871;SDS011;43914;57.680;11.982;2022-12-10T04:18:52;5.83;;;2.30;;
54871;SDS011;43914;57.680;11.982;2022-12-10T04:21:25;6.00;;;2.25;;
54871;SDS011;43914;57.680;11.982;2022-12-10T04:24:11;6.42;;;2.52;;
54871;SDS011;43914;57.680;11.982;2022-12-10T04:26:58;6.65;;;2.30;;
54871;SDS011;43914;57.680;11.982;2022-12-10T04:29:29;7.40;;;2.60;;
54871;SDS011;43914;57.680;11.982;2022-12-10T04:31:56;6.45;;;2.52;;
54871;SDS011;43914;57.680;11.982;2022-12-10T04:34:24;6.75;;;2.42;;
54871;SDS011;43914;57.680;11.982;2022-12-10T04:36:50;7.53;;;2.87;;
54871;SDS011;43914;57.680;11.982;2022-12-10T04:39:17;6.57;;;2.70;;
54871;SDS011;43914;57.680;11.982;2022-12-10T04:41:45;6.58;;;2.35;;
54871;SDS011;43914;57.680;11.982;2022-12-10T04:44:13;6.75;;;2.80;;
54871;SDS011;43914;57.680;11.982;2022-12-10T04:46:39;7.87;;;2.73;;
54871;SDS011;43914;57.680;11.982;2022-12-10T04:49:06;5.53;;;2.07;;
54871;SDS011;43914;57.680;11.982;2022-12-10T04:51:32;6.95;;;2.62;;
54871;SDS011;43914;57.680;11.982;2022-12-10T04:53:58;7.03;;;2.70;;
54871;SDS011;43914;57.680;11.982;2022-12-10T04:56:25;6.75;;;2.40;;
54871;SDS011;43914;57.680;11.982;2022-12-10T04:58:52;7.00;;;2.60;;
54871;SDS011;43914;57.680;11.982;2022-12-10T05:01:20;5.60;;;1.87;;
54871;SDS011;43914;57.680;11.982;2022-12-10T05:03:47;6.72;;;2.80;;
54871;SDS011;43914;57.680;11.982;2022-12-10T05:06:13;8.77;;;3.13;;
54871;SDS011;43914;57.680;11.982;2022-12-10T05:08:41;6.90;;;2.93;;
54871;SDS011;43914;57.680;11.982;2022-12-10T05:11:16;6.50;;;2.30;;
54871;SDS011;43914;57.680;11.982;2022-12-10T05:13:41;6.33;;;2.60;;
54871;SDS011;43914;57.680;11.982;2022-12-10T05:16:09;6.67;;;2.57;;
54871;SDS011;43914;57.680;11.982;2022-12-10T05:18:38;7.27;;;2.90;;
54871;SDS011;43914;57.680;11.982;2022-12-10T05:21:06;6.83;;;2.57;;
54871;SDS011;43914;57.680;11.982;2022-12-10T05:23:40;6.17;;;2.55;;
54871;SDS011;43914;57.680;11.982;2022-12-10T05:26:10;6.78;;;2.10;;
54871;SDS011;43914;57.680;11.982;2022-12-10T05:28:41;7.97;;;2.73;;
54871;SDS011;43914;57.680;11.982;2022-12-10T05:31:18;6.17;;;2.50;;
54871;SDS011;43914;57.680;11.982;2022-12-10T05:33:47;7.17;;;2.70;;
54871;SDS011;43914;57.680;11.982;2022-12-10T05:36:15;6.40;;;2.43;;
54871;SDS011;43914;57.680;11.982;2022-12-10T05:38:44;6.40;;;2.50;;
54871;SDS011;43914;57.680;11.982;2022-12-10T05:41:15;6.77;;;2.57;;
54871;SDS011;43914;57.680;11.982;2022-12-10T05:43:41;7.67;;;2.60;;
54871;SDS011;43914;57.680;11.982;2022-12-10T05:46:12;7.13;;;2.70;;
54871;SDS011;43914;57.680;11.982;2022-12-10T05:48:41;6.30;;;2.30;;
54871;SDS011;43914;57.680;11.982;2022-12-10T05:51:09;7.03;;;2.97;;
54871;SDS011;43914;57.680;11.982;2022-12-10T05:53:41;6.70;;;2.50;;
54871;SDS011;43914;57.680;11.982;2022-12-10T05:56:09;5.83;;;2.30;;
54871;SDS011;43914;57.680;11.982;2022-12-10T05:58:42;7.23;;;2.87;;
54871;SDS011;43914;57.680;11.982;2022-12-10T06:01:10;6.70;;;2.27;;
54871;SDS011;43914;57.680;11.982;2022-12-10T06:03:39;6.70;;;2.60;;
54871;SDS011;43914;57.680;11.982;2022-12-10T06:06:06;6.50;;;2.60;;
54871;SDS011;43914;57.680;11.982;2022-12-10T06:08:35;6.77;;;2.67;;
54871;SDS011;43914;57.680;11.982;2022-12-10T06:11:04;5.97;;;2.27;;
54871;SDS011;43914;57.680;11.982;2022-12-10T06:13:33;6.30;;;2.40;;
54871;SDS011;43914;57.680;11.982;2022-12-10T06:16:09;7.23;;;3.03;;
54871;SDS011;43914;57.680;11.982;2022-12-10T06:18:37;6.00;;;2.43;;
54871;SDS011;43914;57.680;11.982;2022-12-10T06:21:04;6.60;;;2.50;;
54871;SDS011;43914;57.680;11.982;2022-12-10T06:23:35;8.33;;;2.50;;
54871;SDS011;43914;57.680;11.982;2022-12-10T06:26:07;8.07;;;2.97;;
54871;SDS011;43914;57.680;11.982;2022-12-10T06:28:36;9.45;;;3.70;;
54871;SDS011;43914;57.680;11.982;2022-12-10T06:31:03;7.93;;;2.67;;
54871;SDS011;43914;57.680;11.982;2022-12-10T06:33:29;5.80;;;2.40;;
54871;SDS011;43914;57.680;11.982;2022-12-10T06:35:55;6.83;;;2.60;;
54871;SDS011;43914;57.680;11.982;2022-12-10T06:38:21;5.50;;;2.10;;
54871;SDS011;43914;57.680;11.982;2022-12-10T06:40:48;6.40;;;2.33;;
54871;SDS011;43914;57.680;11.982;2022-12-10T06:43:14;6.90;;;2.77;;
54871;SDS011;43914;57.680;11.982;2022-12-10T06:45:40;6.87;;;2.77;;
54871;SDS011;43914;57.680;11.982;2022-12-10T06:48:08;7.60;;;2.47;;
54871;SDS011;43914;57.680;11.982;2022-12-10T06:50:34;6.73;;;2.60;;
54871;SDS011;43914;57.680;11.982;2022-12-10T06:53:01;7.57;;;2.77;;
54871;SDS011;43914;57.680;11.982;2022-12-10T06:55:27;6.80;;;2.80;;
54871;SDS011;43914;57.680;11.982;2022-12-10T06:57:54;8.40;;;2.67;;
54871;SDS011;43914;57.680;11.982;2022-12-10T07:00:20;6.73;;;2.80;;
54871;SDS011;43914;57.680;11.982;2022-12-10T07:02:47;7.20;;;2.67;;
54871;SDS011;43914;57.680;11.982;2022-12-10T07:05:14;6.33;;;2.80;;
54871;SDS011;43914;57.680;11.982;2022-12-10T07:07:40;6.13;;;2.60;;
54871;SDS011;43914;57.680;11.982;2022-12-10T07:10:08;5.70;;;2.27;;
54871;SDS011;43914;57.680;11.982;2022-12-10T07:12:36;7.27;;;2.70;;
54871;SDS011;43914;57.680;11.982;2022-12-10T07:15:02;7.10;;;2.43;;
54871;SDS011;43914;57.680;11.982;2022-12-10T07:17:28;5.93;;;2.43;;
54871;SDS011;43914;57.680;11.982;2022-12-10T07:19:54;6.90;;;2.63;;
54871;SDS011;43914;57.680;11.982;2022-12-10T07:22:20;6.60;;;2.63;;
54871;SDS011;43914;57.680;11.982;2022-12-10T07:24:47;7.30;;;2.93;;
54871;SDS011;43914;57.680;11.982;2022-12-10T07:27:15;6.77;;;2.77;;
54871;SDS011;43914;57.680;11.982;2022-12-10T07:29:41;6.57;;;2.57;;
54871;SDS011;43914;57.680;11.982;2022-12-10T07:32:09;7.97;;;3.63;;
54871;SDS011;43914;57.680;11.982;2022-12-10T07:34:34;8.30;;;3.07;;
54871;SDS011;43914;57.680;11.982;2022-12-10T07:37:00;7.47;;;3.13;;
54871;SDS011;43914;57.680;11.982;2022-12-10T07:39:26;7.87;;;2.83;;
54871;SDS011;43914;57.680;11.982;2022-12-10T07:41:52;7.53;;;2.90;;
54871;SDS011;43914;57.680;11.982;2022-12-10T07:44:19;8.07;;;3.20;;
54871;SDS011;43914;57.680;11.982;2022-12-10T07:46:48;7.70;;;2.97;;
54871;SDS011;43914;57.680;11.982;2022-12-10T07:49:15;7.97;;;3.17;;
54871;SDS011;43914;57.680;11.982;2022-12-10T07:51:45;6.70;;;2.83;;
54871;SDS011;43914;57.680;11.982;2022-12-10T07:54:14;6.97;;;2.70;;
54871;SDS011;43914;57.680;11.982;2022-12-10T07:56:41;7.63;;;2.87;;
54871;SDS011;43914;57.680;11.982;2022-12-10T07:59:07;8.43;;;3.30;;
54871;SDS011;43914;57.680;11.982;2022-12-10T08:01:33;6.80;;;2.87;;
54871;SDS011;43914;57.680;11.982;2022-12-10T08:03:59;7.87;;;3.13;;
54871;SDS011;43914;57.680;11.982;2022-12-10T08:06:27;8.60;;;3.03;;
54871;SDS011;43914;57.680;11.982;2022-12-10T08:08:54;8.37;;;2.90;;
54871;SDS011;43914;57.680;11.982;2022-12-10T08:11:23;8.63;;;3.97;;
54871;SDS011;43914;57.680;11.982;2022-12-10T08:13:49;6.60;;;2.90;;
54871;SDS011;43914;57.680;11.982;2022-12-10T08:16:17;7.60;;;3.43;;
54871;SDS011;43914;57.680;11.982;2022-12-10T08:18:45;7.57;;;3.00;;
54871;SDS011;43914;57.680;11.982;2022-12-10T08:21:13;7.73;;;3.20;;
54871;SDS011;43914;57.680;11.982;2022-12-10T08:23:42;7.37;;;3.10;;
54871;SDS011;43914;57.680;11.982;2022-12-10T08:26:10;7.73;;;3.00;;
54871;SDS011;43914;57.680;11.982;2022-12-10T08:28:39;7.37;;;3.20;;
54871;SDS011;43914;57.680;11.982;2022-12-10T08:31:06;8.17;;;3.00;;
54871;SDS011;43914;57.680;11.982;2022-12-10T08:33:35;7.20;;;3.10;;
54871;SDS011;43914;57.680;11.982;2022-12-10T08:36:02;7.57;;;3.10;;
54871;SDS011;43914;57.680;11.982;2022-12-10T08:38:30;8.40;;;3.77;;
54871;SDS011;43914;57.680;11.982;2022-12-10T08:40:56;6.47;;;2.70;;
54871;SDS011;43914;57.680;11.982;2022-12-10T08:43:23;7.00;;;3.13;;
54871;SDS011;43914;57.680;11.982;2022-12-10T08:45:49;6.50;;;2.67;;
54871;SDS011;43914;57.680;11.982;2022-12-10T08:48:15;6.43;;;2.67;;
54871;SDS011;43914;57.680;11.982;2022-12-10T08:50:41;8.27;;;3.70;;
54871;SDS011;43914;57.680;11.982;2022-12-10T08:53:07;7.93;;;3.47;;
54871;SDS011;43914;57.680;11.982;2022-12-10T08:55:37;10.33;;;3.90;;
54871;SDS011;43914;57.680;11.982;2022-12-10T08:58:05;7.85;;;3.67;;
54871;SDS011;43914;57.680;11.982;2022-12-10T09:00:31;8.90;;;3.87;;
54871;SDS011;43914;57.680;11.982;2022-12-10T09:02:56;8.77;;;3.87;;
54871;SDS011;43914;57.680;11.982;2022-12-10T09:05:22;7.60;;;3.23;;
54871;SDS011;43914;57.680;11.982;2022-12-10T09:07:48;8.33;;;3.57;;
54871;SDS011;43914;57.680;11.982;2022-12-10T09:10:14;7.80;;;3.60;;
54871;SDS011;43914;57.680;11.982;2022-12-10T09:12:41;7.73;;;3.63;;
54871;SDS011;43914;57.680;11.982;2022-12-10T09:15:08;7.58;;;3.20;;
54871;SDS011;43914;57.680;11.982;2022-12-10T09:17:36;7.57;;;3.17;;
54871;SDS011;43914;57.680;11.982;2022-12-10T09:20:04;7.73;;;3.30;;
54871;SDS011;43914;57.680;11.982;2022-12-10T09:22:31;7.30;;;3.20;;
54871;SDS011;43914;57.680;11.982;2022-12-10T09:25:00;7.63;;;3.30;;
54871;SDS011;43914;57.680;11.982;2022-12-10T09:27:26;9.73;;;3.70;;
54871;SDS011;43914;57.680;11.982;2022-12-10T09:29:52;8.48;;;3.40;;
54871;SDS011;43914;57.680;11.982;2022-12-10T09:32:18;7.33;;;2.70;;
54871;SDS011;43914;57.680;11.982;2022-12-10T09:34:44;7.43;;;2.90;;
54871;SDS011;43914;57.680;11.982;2022-12-10T09:37:10;8.53;;;3.37;;
54871;SDS011;43914;57.680;11.982;2022-12-10T09:39:36;8.23;;;2.83;;
54871;SDS011;43914;57.680;11.982;2022-12-10T09:47:45;6.33;;;2.52;;
54871;SDS011;43914;57.680;11.982;2022-12-10T09:53:18;6.90;;;2.80;;
54871;SDS011;43914;57.680;11.982;2022-12-10T09:55:46;7.15;;;2.40;;
54871;SDS011;43914;57.680;11.982;2022-12-10T09:58:17;7.40;;;2.60;;
54871;SDS011;43914;57.680;11.982;2022-12-10T10:00:47;6.53;;;2.50;;
54871;SDS011;43914;57.680;11.982;2022-12-10T10:03:18;7.90;;;2.55;;
54871;SDS011;43914;57.680;11.982;2022-12-10T10:05:48;6.03;;;2.30;;
54871;SDS011;43914;57.680;11.982;2022-12-10T10:11:00;6.92;;;2.67;;
54871;SDS011;43914;57.680;11.982;2022-12-10T10:13:32;6.03;;;2.02;;
54871;SDS011;43914;57.680;11.982;2022-12-10T10:19:01;6.12;;;2.20;;
54871;SDS011;43914;57.680;11.982;2022-12-10T10:21:35;7.25;;;2.77;;
54871;SDS011;43914;57.680;11.982;2022-12-10T10:24:07;6.55;;;2.27;;
54871;SDS011;43914;57.680;11.982;2022-12-10T10:26:41;5.67;;;1.82;;
54871;SDS011;43914;57.680;11.982;2022-12-10T10:29:08;6.12;;;2.22;;
54871;SDS011;43914;57.680;11.982;2022-12-10T10:31:39;5.60;;;2.20;;
54871;SDS011;43914;57.680;11.982;2022-12-10T10:34:16;5.37;;;2.00;;
54871;SDS011;43914;57.680;11.982;2022-12-10T10:36:44;6.17;;;2.08;;
54871;SDS011;43914;57.680;11.982;2022-12-10T10:41:52;8.05;;;2.70;;
54871;SDS011;43914;57.680;11.982;2022-12-10T10:44:20;6.22;;;2.40;;
54871;SDS011;43914;57.680;11.982;2022-12-10T10:46:52;8.43;;;2.87;;
54871;SDS011;43914;57.680;11.982;2022-12-10T10:49:27;6.78;;;2.62;;
54871;SDS011;43914;57.680;11.982;2022-12-10T10:52:01;7.28;;;2.90;;
54871;SDS011;43914;57.680;11.982;2022-12-10T10:54:43;6.50;;;2.72;;
54871;SDS011;43914;57.680;11.982;2022-12-10T10:57:15;6.72;;;2.67;;
54871;SDS011;43914;57.680;11.982;2022-12-10T10:59:55;7.35;;;2.80;;
54871;SDS011;43914;57.680;11.982;2022-12-10T11:04:57;6.15;;;2.30;;
54871;SDS011;43914;57.680;11.982;2022-12-10T11:07:39;5.85;;;2.50;;
54871;SDS011;43914;57.680;11.982;2022-12-10T11:12:57;6.37;;;2.50;;
54871;SDS011;43914;57.680;11.982;2022-12-10T11:15:36;7.00;;;2.42;;
54871;SDS011;43914;57.680;11.982;2022-12-10T11:21:15;7.35;;;2.75;;
54871;SDS011;43914;57.680;11.982;2022-12-10T11:23:38;7.30;;;2.77;;
54871;SDS011;43914;57.680;11.982;2022-12-10T11:37:38;7.22;;;2.85;;
54871;SDS011;43914;57.680;11.982;2022-12-10T11:40:49;6.75;;;2.90;;
54871;SDS011;43914;57.680;11.982;2022-12-10T11:46:43;6.53;;;2.58;;
54871;SDS011;43914;57.680;11.982;2022-12-10T11:49:24;7.12;;;3.22;;
54871;SDS011;43914;57.680;11.982;2022-12-10T11:52:07;7.40;;;2.70;;
54871;SDS011;43914;57.680;11.982;2022-12-10T12:03:29;7.10;;;2.72;;
54871;SDS011;43914;57.680;11.982;2022-12-10T12:09:23;6.58;;;2.98;;
54871;SDS011;43914;57.680;11.982;2022-12-10T12:18:02;8.08;;;3.00;;
54871;SDS011;43914;57.680;11.982;2022-12-10T12:20:54;7.70;;;3.33;;
54871;SDS011;43914;57.680;11.982;2022-12-10T12:24:15;7.62;;;3.20;;
54871;SDS011;43914;57.680;11.982;2022-12-10T12:26:23;8.08;;;3.42;;
54871;SDS011;43914;57.680;11.982;2022-12-10T12:32:07;8.43;;;3.30;;
54871;SDS011;43914;57.680;11.982;2022-12-10T12:35:01;7.40;;;3.02;;
54871;SDS011;43914;57.680;11.982;2022-12-10T12:40:35;8.18;;;3.30;;
54871;SDS011;43914;57.680;11.982;2022-12-10T12:43:19;7.78;;;3.30;;
54871;SDS011;43914;57.680;11.982;2022-12-10T12:45:49;7.87;;;3.15;;
54871;SDS011;43914;57.680;11.982;2022-12-10T12:51:32;8.03;;;3.12;;
54871;SDS011;43914;57.680;11.982;2022-12-10T12:54:04;7.30;;;2.90;;
54871;SDS011;43914;57.680;11.982;2022-12-10T12:59:32;9.70;;;3.60;;
54871;SDS011;43914;57.680;11.982;2022-12-10T13:02:22;11.12;;;4.60;;
54871;SDS011;43914;57.680;11.982;2022-12-10T13:05:14;9.58;;;4.15;;
54871;SDS011;43914;57.680;11.982;2022-12-10T13:11:00;9.45;;;4.58;;
54871;SDS011;43914;57.680;11.982;2022-12-10T13:14:02;9.98;;;4.60;;
54871;SDS011;43914;57.680;11.982;2022-12-10T13:22:08;9.38;;;4.33;;
54871;SDS011;43914;57.680;11.982;2022-12-10T13:27:15;9.83;;;4.65;;
54871;SDS011;43914;57.680;11.982;2022-12-10T13:30:01;9.00;;;4.40;;
54871;SDS011;43914;57.680;11.982;2022-12-10T13:43:38;7.65;;;3.65;;
54871;SDS011;43914;57.680;11.982;2022-12-10T13:46:33;7.62;;;3.12;;
54871;SDS011;43914;57.680;11.982;2022-12-10T13:54:41;8.50;;;4.03;;
54871;SDS011;43914;57.680;11.982;2022-12-10T13:57:37;8.20;;;3.77;;
54871;SDS011;43914;57.680;11.982;2022-12-10T14:08:55;9.78;;;4.60;;
54871;SDS011;43914;57.680;11.982;2022-12-10T14:11:29;10.85;;;3.90;;
54871;SDS011;43914;57.680;11.982;2022-12-10T14:14:00;8.95;;;4.17;;
54871;SDS011;43914;57.680;11.982;2022-12-10T14:16:28;8.25;;;3.85;;
54871;SDS011;43914;57.680;11.982;2022-12-10T14:18:58;10.18;;;5.30;;
54871;SDS011;43914;57.680;11.982;2022-12-10T14:21:37;10.63;;;5.20;;
54871;SDS011;43914;57.680;11.982;2022-12-10T14:24:04;11.10;;;5.10;;
54871;SDS011;43914;57.680;11.982;2022-12-10T14:26:35;9.38;;;4.28;;
54871;SDS011;43914;57.680;11.982;2022-12-10T14:31:47;10.45;;;4.53;;
54871;SDS011;43914;57.680;11.982;2022-12-10T14:34:15;10.48;;;4.80;;
54871;SDS011;43914;57.680;11.982;2022-12-10T14:36:49;10.85;;;4.87;;
54871;SDS011;43914;57.680;11.982;2022-12-10T14:39:22;11.25;;;5.40;;
54871;SDS011;43914;57.680;11.982;2022-12-10T14:41:47;12.03;;;5.60;;
54871;SDS011;43914;57.680;11.982;2022-12-10T14:44:17;10.60;;;5.40;;
54871;SDS011;43914;57.680;11.982;2022-12-10T14:46:48;14.15;;;4.83;;
54871;SDS011;43914;57.680;11.982;2022-12-10T14:49:22;10.60;;;4.70;;
54871;SDS011;43914;57.680;11.982;2022-12-10T14:51:52;11.57;;;5.08;;
54871;SDS011;43914;57.680;11.982;2022-12-10T14:54:29;10.10;;;4.72;;
54871;SDS011;43914;57.680;11.982;2022-12-10T14:57:01;13.22;;;5.25;;
54871;SDS011;43914;57.680;11.982;2022-12-10T15:02:29;12.78;;;5.35;;
54871;SDS011;43914;57.680;11.982;2022-12-10T15:05:02;11.22;;;5.15;;
54871;SDS011;43914;57.680;11.982;2022-12-10T15:07:32;12.78;;;6.03;;
54871;SDS011;43914;57.680;11.982;2022-12-10T15:10:13;12.10;;;4.83;;
54871;SDS011;43914;57.680;11.982;2022-12-10T15:12:52;9.45;;;4.40;;
54871;SDS011;43914;57.680;11.982;2022-12-10T15:15:28;11.70;;;4.67;;
54871;SDS011;43914;57.680;11.982;2022-12-10T15:18:07;10.58;;;4.15;;
54871;SDS011;43914;57.680;11.982;2022-12-10T15:20:47;9.23;;;4.33;;
54871;SDS011;43914;57.680;11.982;2022-12-10T15:26:09;11.03;;;5.50;;
54871;SDS011;43914;57.680;11.982;2022-12-10T15:28:48;12.03;;;5.35;;
54871;SDS011;43914;57.680;11.982;2022-12-10T15:31:20;11.97;;;5.50;;
54871;SDS011;43914;57.680;11.982;2022-12-10T15:34:00;13.98;;;6.22;;
54871;SDS011;43914;57.680;11.982;2022-12-10T15:36:50;11.45;;;5.70;;
54871;SDS011;43914;57.680;11.982;2022-12-10T15:39:24;10.13;;;4.83;;
54871;SDS011;43914;57.680;11.982;2022-12-10T15:42:25;11.48;;;4.85;;
54871;SDS011;43914;57.680;11.982;2022-12-10T15:44:36;11.93;;;5.83;;
54871;SDS011;43914;57.680;11.982;2022-12-10T15:47:20;12.25;;;5.87;;
54871;SDS011;43914;57.680;11.982;2022-12-10T15:49:51;14.63;;;5.78;;
54871;SDS011;43914;57.680;11.982;2022-12-10T15:52:21;11.20;;;6.00;;
54871;SDS011;43914;57.680;11.982;2022-12-10T15:54:54;10.53;;;5.15;;
54871;SDS011;43914;57.680;11.982;2022-12-10T15:59:59;12.40;;;6.08;;
54871;SDS011;43914;57.680;11.982;2022-12-10T16:03:15;14.80;;;6.80;;
54871;SDS011;43914;57.680;11.982;2022-12-10T16:05:28;15.90;;;6.37;;
54871;SDS011;43914;57.680;11.982;2022-12-10T16:08:01;15.18;;;6.10;;
54871;SDS011;43914;57.680;11.982;2022-12-10T16:10:40;13.28;;;6.97;;
54871;SDS011;43914;57.680;11.982;2022-12-10T16:13:06;12.63;;;6.60;;
54871;SDS011;43914;57.680;11.982;2022-12-10T16:15:43;14.03;;;6.28;;
54871;SDS011;43914;57.680;11.982;2022-12-10T16:18:17;13.50;;;6.28;;
54871;SDS011;43914;57.680;11.982;2022-12-10T16:20:44;11.70;;;5.93;;
54871;SDS011;43914;57.680;11.982;2022-12-10T16:23:10;14.50;;;7.23;;
54871;SDS011;43914;57.680;11.982;2022-12-10T16:25:39;12.33;;;5.53;;
54871;SDS011;43914;57.680;11.982;2022-12-10T16:28:07;13.05;;;6.37;;
54871;SDS011;43914;57.680;11.982;2022-12-10T16:30:36;13.08;;;6.53;;
54871;SDS011;43914;57.680;11.982;2022-12-10T16:33:08;13.53;;;6.22;;
54871;SDS011;43914;57.680;11.982;2022-12-10T16:35:34;14.53;;;6.85;;
54871;SDS011;43914;57.680;11.982;2022-12-10T16:38:00;12.53;;;6.63;;
54871;SDS011;43914;57.680;11.982;2022-12-10T16:40:27;14.47;;;7.40;;
54871;SDS011;43914;57.680;11.982;2022-12-10T16:42:53;17.05;;;7.28;;
54871;SDS011;43914;57.680;11.982;2022-12-10T16:45:22;13.27;;;6.20;;
54871;SDS011;43914;57.680;11.982;2022-12-10T16:47:56;13.50;;;6.70;;
54871;SDS011;43914;57.680;11.982;2022-12-10T16:50:23;11.30;;;5.33;;
54871;SDS011;43914;57.680;11.982;2022-12-10T16:52:50;15.27;;;6.67;;
54871;SDS011;43914;57.680;11.982;2022-12-10T16:55:19;12.93;;;6.45;;
54871;SDS011;43914;57.680;11.982;2022-12-10T16:57:49;12.78;;;5.95;;
54871;SDS011;43914;57.680;11.982;2022-12-10T17:00:17;14.55;;;6.65;;
54871;SDS011;43914;57.680;11.982;2022-12-10T17:02:47;10.98;;;5.47;;
54871;SDS011;43914;57.680;11.982;2022-12-10T17:07:57;11.00;;;5.42;;
54871;SDS011;43914;57.680;11.982;2022-12-10T17:10:23;9.70;;;4.60;;
54871;SDS011;43914;57.680;11.982;2022-12-10T17:13:11;10.43;;;5.17;;
54871;SDS011;43914;57.680;11.982;2022-12-10T17:15:41;9.98;;;4.62;;
54871;SDS011;43914;57.680;11.982;2022-12-10T17:18:11;9.30;;;4.53;;
54871;SDS011;43914;57.680;11.982;2022-12-10T17:20:40;9.85;;;5.45;;